sensor_id;sensor_type;location;lat;lon;timestamp;temperature;humidity
11003;DHT22;5554;55.796;13.090;2022-07-29T00:00:48;12.20;99.90
11003;DHT22;5554;55.796;13.090;2022-07-29T00:03:14;12.20;99.90
11003;DHT22;5554;55.796;13.090;2022-07-29T00:05:43;12.10;99.90
11003;DHT22;5554;55.796;13.090;2022-07-29T00:08:10;12.10;99.90
11003;DHT22;5554;55.796;13.090;2022-07-29T00:10:36;12.10;99.90
11003;DHT22;5554;55.796;13.090;2022-07-29T00:13:04;12.00;99.90
11003;DHT22;5554;55.796;13.090;2022-07-29T00:15:31;12.00;99.90
11003;DHT22;5554;55.796;13.090;2022-07-29T00:17:57;12.00;99.90
11003;DHT22;5554;55.796;13.090;2022-07-29T00:20:24;12.10;99.90
11003;DHT22;5554;55.796;13.090;2022-07-29T00:22:53;12.20;99.90
11003;DHT22;5554;55.796;13.090;2022-07-29T00:25:19;12.20;99.90
11003;DHT22;5554;55.796;13.090;2022-07-29T00:27:46;12.10;99.90
11003;DHT22;5554;55.796;13.090;2022-07-29T00:30:13;12.10;99.90
11003;DHT22;5554;55.796;13.090;2022-07-29T00:32:40;12.10;99.90
11003;DHT22;5554;55.796;13.090;2022-07-29T00:35:08;12.10;99.90
11003;DHT22;5554;55.796;13.090;2022-07-29T00:37:54;12.10;99.90
11003;DHT22;5554;55.796;13.090;2022-07-29T00:40:21;12.20;99.90
11003;DHT22;5554;55.796;13.090;2022-07-29T00:42:50;12.20;99.90
11003;DHT22;5554;55.796;13.090;2022-07-29T00:45:18;12.30;99.90
11003;DHT22;5554;55.796;13.090;2022-07-29T00:47:45;12.20;99.90
11003;DHT22;5554;55.796;13.090;2022-07-29T00:50:13;12.10;99.90
11003;DHT22;5554;55.796;13.090;2022-07-29T00:52:41;12.10;99.90
11003;DHT22;5554;55.796;13.090;2022-07-29T00:55:12;12.00;99.90
11003;DHT22;5554;55.796;13.090;2022-07-29T00:57:40;12.00;99.90
11003;DHT22;5554;55.796;13.090;2022-07-29T01:00:10;11.90;99.90
11003;DHT22;5554;55.796;13.090;2022-07-29T01:02:37;11.90;99.90
11003;DHT22;5554;55.796;13.090;2022-07-29T01:05:05;11.80;99.90
11003;DHT22;5554;55.796;13.090;2022-07-29T01:07:33;11.80;99.90
11003;DHT22;5554;55.796;13.090;2022-07-29T01:10:02;11.90;99.90
11003;DHT22;5554;55.796;13.090;2022-07-29T01:12:32;11.80;99.90
11003;DHT22;5554;55.796;13.090;2022-07-29T01:15:00;11.80;99.90
11003;DHT22;5554;55.796;13.090;2022-07-29T01:17:33;11.90;99.90
11003;DHT22;5554;55.796;13.090;2022-07-29T01:20:05;11.80;99.90
11003;DHT22;5554;55.796;13.090;2022-07-29T01:22:46;11.70;99.90
11003;DHT22;5554;55.796;13.090;2022-07-29T01:25:34;11.80;99.90
11003;DHT22;5554;55.796;13.090;2022-07-29T01:30:51;11.90;99.90
11003;DHT22;5554;55.796;13.090;2022-07-29T01:33:20;11.90;99.90
11003;DHT22;5554;55.796;13.090;2022-07-29T01:36:11;11.80;99.90
11003;DHT22;5554;55.796;13.090;2022-07-29T01:38:42;11.70;99.90
11003;DHT22;5554;55.796;13.090;2022-07-29T01:41:13;11.70;99.90
11003;DHT22;5554;55.796;13.090;2022-07-29T01:43:44;11.80;99.90
11003;DHT22;5554;55.796;13.090;2022-07-29T01:46:19;11.80;99.90
11003;DHT22;5554;55.796;13.090;2022-07-29T01:48:50;11.80;99.90
11003;DHT22;5554;55.796;13.090;2022-07-29T01:51:24;11.70;99.90
11003;DHT22;5554;55.796;13.090;2022-07-29T01:53:57;11.60;99.90
11003;DHT22;5554;55.796;13.090;2022-07-29T01:56:29;11.60;99.90
11003;DHT22;5554;55.796;13.090;2022-07-29T01:58:59;11.60;99.90
11003;DHT22;5554;55.796;13.090;2022-07-29T02:01:29;11.70;99.90
11003;DHT22;5554;55.796;13.090;2022-07-29T02:03:58;11.80;99.90
11003;DHT22;5554;55.796;13.090;2022-07-29T02:06:26;11.70;99.90
11003;DHT22;5554;55.796;13.090;2022-07-29T02:08:55;11.70;99.90
11003;DHT22;5554;55.796;13.090;2022-07-29T02:11:22;11.70;99.90
11003;DHT22;5554;55.796;13.090;2022-07-29T02:13:50;11.70;99.90
11003;DHT22;5554;55.796;13.090;2022-07-29T02:16:21;11.70;99.90
11003;DHT22;5554;55.796;13.090;2022-07-29T02:18:52;11.60;99.90
11003;DHT22;5554;55.796;13.090;2022-07-29T02:21:24;11.60;99.90
11003;DHT22;5554;55.796;13.090;2022-07-29T02:23:52;11.70;99.90
11003;DHT22;5554;55.796;13.090;2022-07-29T02:26:20;11.70;99.90
11003;DHT22;5554;55.796;13.090;2022-07-29T02:28:50;11.60;99.90
11003;DHT22;5554;55.796;13.090;2022-07-29T02:31:21;11.70;99.90
11003;DHT22;5554;55.796;13.090;2022-07-29T02:33:51;11.70;99.90
11003;DHT22;5554;55.796;13.090;2022-07-29T02:36:21;11.70;99.90
11003;DHT22;5554;55.796;13.090;2022-07-29T02:38:49;11.70;99.90
11003;DHT22;5554;55.796;13.090;2022-07-29T02:41:18;11.70;99.90
11003;DHT22;5554;55.796;13.090;2022-07-29T02:43:48;11.70;99.90
11003;DHT22;5554;55.796;13.090;2022-07-29T02:46:20;11.60;99.90
11003;DHT22;5554;55.796;13.090;2022-07-29T02:48:55;11.70;99.90
11003;DHT22;5554;55.796;13.090;2022-07-29T02:51:28;11.70;99.90
11003;DHT22;5554;55.796;13.090;2022-07-29T02:53:59;11.70;99.90
11003;DHT22;5554;55.796;13.090;2022-07-29T02:56:32;11.70;99.90
11003;DHT22;5554;55.796;13.090;2022-07-29T02:59:04;11.60;99.90
11003;DHT22;5554;55.796;13.090;2022-07-29T03:01:33;11.50;99.90
11003;DHT22;5554;55.796;13.090;2022-07-29T03:04:04;11.60;99.90
11003;DHT22;5554;55.796;13.090;2022-07-29T03:06:33;11.50;99.90
11003;DHT22;5554;55.796;13.090;2022-07-29T03:09:01;11.40;99.90
11003;DHT22;5554;55.796;13.090;2022-07-29T03:11:28;11.50;99.90
11003;DHT22;5554;55.796;13.090;2022-07-29T03:13:56;11.40;99.90
11003;DHT22;5554;55.796;13.090;2022-07-29T03:16:23;11.40;99.90
11003;DHT22;5554;55.796;13.090;2022-07-29T03:18:52;11.30;99.90
11003;DHT22;5554;55.796;13.090;2022-07-29T03:21:20;11.30;99.90
11003;DHT22;5554;55.796;13.090;2022-07-29T03:23:47;11.20;99.90
11003;DHT22;5554;55.796;13.090;2022-07-29T03:26:14;11.30;99.90
11003;DHT22;5554;55.796;13.090;2022-07-29T03:28:41;11.30;99.90
11003;DHT22;5554;55.796;13.090;2022-07-29T03:31:08;11.30;99.90
11003;DHT22;5554;55.796;13.090;2022-07-29T03:33:35;11.40;99.90
11003;DHT22;5554;55.796;13.090;2022-07-29T03:36:02;11.40;99.90
11003;DHT22;5554;55.796;13.090;2022-07-29T03:38:33;11.40;99.90
11003;DHT22;5554;55.796;13.090;2022-07-29T03:41:06;11.50;99.90
11003;DHT22;5554;55.796;13.090;2022-07-29T03:43:36;11.60;99.90
11003;DHT22;5554;55.796;13.090;2022-07-29T03:46:04;11.60;99.90
11003;DHT22;5554;55.796;13.090;2022-07-29T03:48:33;11.70;99.90
11003;DHT22;5554;55.796;13.090;2022-07-29T03:51:01;11.70;99.90
11003;DHT22;5554;55.796;13.090;2022-07-29T03:53:30;11.70;99.90
11003;DHT22;5554;55.796;13.090;2022-07-29T03:56:00;11.70;99.90
11003;DHT22;5554;55.796;13.090;2022-07-29T03:58:30;11.80;99.90
11003;DHT22;5554;55.796;13.090;2022-07-29T04:00:58;11.80;99.90
11003;DHT22;5554;55.796;13.090;2022-07-29T04:03:25;11.80;99.90
11003;DHT22;5554;55.796;13.090;2022-07-29T04:06:03;11.80;99.90
11003;DHT22;5554;55.796;13.090;2022-07-29T04:08:33;12.00;99.90
11003;DHT22;5554;55.796;13.090;2022-07-29T04:11:00;12.10;99.90
11003;DHT22;5554;55.796;13.090;2022-07-29T04:13:27;12.00;99.90
11003;DHT22;5554;55.796;13.090;2022-07-29T04:15:54;12.10;99.90
11003;DHT22;5554;55.796;13.090;2022-07-29T04:18:21;12.10;99.90
11003;DHT22;5554;55.796;13.090;2022-07-29T04:20:48;12.20;99.90
11003;DHT22;5554;55.796;13.090;2022-07-29T04:23:14;12.00;99.90
11003;DHT22;5554;55.796;13.090;2022-07-29T04:25:43;12.10;99.90
11003;DHT22;5554;55.796;13.090;2022-07-29T04:28:10;12.20;99.90
11003;DHT22;5554;55.796;13.090;2022-07-29T04:30:37;12.00;99.90
11003;DHT22;5554;55.796;13.090;2022-07-29T04:33:06;12.00;99.90
11003;DHT22;5554;55.796;13.090;2022-07-29T04:35:34;11.90;99.90
11003;DHT22;5554;55.796;13.090;2022-07-29T04:38:02;12.00;99.90
11003;DHT22;5554;55.796;13.090;2022-07-29T04:40:29;12.00;99.90
11003;DHT22;5554;55.796;13.090;2022-07-29T04:42:57;12.20;99.90
11003;DHT22;5554;55.796;13.090;2022-07-29T04:45:24;12.20;99.90
11003;DHT22;5554;55.796;13.090;2022-07-29T04:47:51;12.20;99.90
11003;DHT22;5554;55.796;13.090;2022-07-29T04:50:18;12.40;99.90
11003;DHT22;5554;55.796;13.090;2022-07-29T04:52:45;12.60;99.90
11003;DHT22;5554;55.796;13.090;2022-07-29T04:55:12;12.90;99.90
11003;DHT22;5554;55.796;13.090;2022-07-29T04:57:39;13.80;99.90
11003;DHT22;5554;55.796;13.090;2022-07-29T05:00:08;15.10;99.90
11003;DHT22;5554;55.796;13.090;2022-07-29T05:02:36;15.60;99.90
11003;DHT22;5554;55.796;13.090;2022-07-29T05:05:03;16.20;99.90
11003;DHT22;5554;55.796;13.090;2022-07-29T05:07:30;16.90;99.90
11003;DHT22;5554;55.796;13.090;2022-07-29T05:09:57;17.60;99.90
11003;DHT22;5554;55.796;13.090;2022-07-29T05:12:24;17.80;99.90
11003;DHT22;5554;55.796;13.090;2022-07-29T05:14:52;18.30;99.90
11003;DHT22;5554;55.796;13.090;2022-07-29T05:17:20;18.30;99.90
11003;DHT22;5554;55.796;13.090;2022-07-29T05:19:47;18.80;99.90
11003;DHT22;5554;55.796;13.090;2022-07-29T05:22:17;18.70;99.90
11003;DHT22;5554;55.796;13.090;2022-07-29T05:24:44;19.00;99.90
11003;DHT22;5554;55.796;13.090;2022-07-29T05:27:10;19.30;99.90
11003;DHT22;5554;55.796;13.090;2022-07-29T05:29:38;19.80;99.90
11003;DHT22;5554;55.796;13.090;2022-07-29T05:32:05;20.60;99.90
11003;DHT22;5554;55.796;13.090;2022-07-29T05:34:34;20.70;99.90
11003;DHT22;5554;55.796;13.090;2022-07-29T05:37:01;20.60;99.90
11003;DHT22;5554;55.796;13.090;2022-07-29T05:39:28;20.80;99.90
11003;DHT22;5554;55.796;13.090;2022-07-29T05:41:55;20.30;99.90
11003;DHT22;5554;55.796;13.090;2022-07-29T05:44:22;20.40;99.90
11003;DHT22;5554;55.796;13.090;2022-07-29T05:46:49;19.60;99.90
11003;DHT22;5554;55.796;13.090;2022-07-29T05:49:16;18.80;99.90
11003;DHT22;5554;55.796;13.090;2022-07-29T05:51:44;18.20;99.90
11003;DHT22;5554;55.796;13.090;2022-07-29T05:54:11;17.80;99.90
11003;DHT22;5554;55.796;13.090;2022-07-29T05:56:38;17.50;99.90
11003;DHT22;5554;55.796;13.090;2022-07-29T05:59:05;17.50;99.90
11003;DHT22;5554;55.796;13.090;2022-07-29T06:01:32;17.30;99.90
11003;DHT22;5554;55.796;13.090;2022-07-29T06:03:59;17.20;99.90
11003;DHT22;5554;55.796;13.090;2022-07-29T06:06:26;17.00;99.90
11003;DHT22;5554;55.796;13.090;2022-07-29T06:08:54;17.10;99.90
11003;DHT22;5554;55.796;13.090;2022-07-29T06:11:21;17.00;99.90
11003;DHT22;5554;55.796;13.090;2022-07-29T06:13:49;16.90;99.90
11003;DHT22;5554;55.796;13.090;2022-07-29T06:16:16;17.00;99.90
11003;DHT22;5554;55.796;13.090;2022-07-29T06:18:43;16.90;99.90
11003;DHT22;5554;55.796;13.090;2022-07-29T06:21:09;17.00;99.90
11003;DHT22;5554;55.796;13.090;2022-07-29T06:23:37;16.90;99.90
11003;DHT22;5554;55.796;13.090;2022-07-29T06:26:06;17.00;99.90
11003;DHT22;5554;55.796;13.090;2022-07-29T06:28:33;16.90;99.90
11003;DHT22;5554;55.796;13.090;2022-07-29T06:31:00;16.90;99.90
11003;DHT22;5554;55.796;13.090;2022-07-29T06:33:27;16.90;99.90
11003;DHT22;5554;55.796;13.090;2022-07-29T06:35:54;16.90;99.90
11003;DHT22;5554;55.796;13.090;2022-07-29T06:38:21;17.00;99.90
11003;DHT22;5554;55.796;13.090;2022-07-29T06:40:51;17.20;99.90
11003;DHT22;5554;55.796;13.090;2022-07-29T06:43:37;17.30;99.90
11003;DHT22;5554;55.796;13.090;2022-07-29T06:46:06;17.40;99.90
11003;DHT22;5554;55.796;13.090;2022-07-29T06:48:33;17.30;99.90
11003;DHT22;5554;55.796;13.090;2022-07-29T06:51:02;17.20;99.90
11003;DHT22;5554;55.796;13.090;2022-07-29T06:53:30;17.30;99.90
11003;DHT22;5554;55.796;13.090;2022-07-29T06:55:57;17.40;99.90
11003;DHT22;5554;55.796;13.090;2022-07-29T06:58:25;17.50;99.90
11003;DHT22;5554;55.796;13.090;2022-07-29T07:00:54;17.50;99.90
11003;DHT22;5554;55.796;13.090;2022-07-29T07:03:23;17.50;99.90
11003;DHT22;5554;55.796;13.090;2022-07-29T07:05:52;17.60;99.90
11003;DHT22;5554;55.796;13.090;2022-07-29T07:08:19;17.50;99.90
11003;DHT22;5554;55.796;13.090;2022-07-29T07:10:47;17.70;99.90
11003;DHT22;5554;55.796;13.090;2022-07-29T07:13:14;17.80;99.90
11003;DHT22;5554;55.796;13.090;2022-07-29T07:15:42;17.70;99.90
11003;DHT22;5554;55.796;13.090;2022-07-29T07:18:11;17.80;99.90
11003;DHT22;5554;55.796;13.090;2022-07-29T07:20:39;17.80;99.90
11003;DHT22;5554;55.796;13.090;2022-07-29T07:23:07;18.00;99.90
11003;DHT22;5554;55.796;13.090;2022-07-29T07:25:34;18.00;99.90
11003;DHT22;5554;55.796;13.090;2022-07-29T07:28:01;18.10;99.90
11003;DHT22;5554;55.796;13.090;2022-07-29T07:30:29;18.10;99.90
11003;DHT22;5554;55.796;13.090;2022-07-29T07:32:56;18.30;99.90
11003;DHT22;5554;55.796;13.090;2022-07-29T07:35:25;18.40;99.90
11003;DHT22;5554;55.796;13.090;2022-07-29T07:37:59;18.40;99.90
11003;DHT22;5554;55.796;13.090;2022-07-29T07:40:31;18.40;99.90
11003;DHT22;5554;55.796;13.090;2022-07-29T07:42:58;18.50;99.90
11003;DHT22;5554;55.796;13.090;2022-07-29T07:45:25;18.70;99.90
11003;DHT22;5554;55.796;13.090;2022-07-29T07:47:51;18.80;99.90
11003;DHT22;5554;55.796;13.090;2022-07-29T07:50:18;18.80;99.90
11003;DHT22;5554;55.796;13.090;2022-07-29T07:52:48;18.80;1.00
11003;DHT22;5554;55.796;13.090;2022-07-29T07:55:16;19.10;1.00
11003;DHT22;5554;55.796;13.090;2022-07-29T07:57:43;19.10;1.00
11003;DHT22;5554;55.796;13.090;2022-07-29T08:00:11;19.20;99.90
11003;DHT22;5554;55.796;13.090;2022-07-29T08:02:39;19.30;99.90
11003;DHT22;5554;55.796;13.090;2022-07-29T08:05:07;19.50;88.80
11003;DHT22;5554;55.796;13.090;2022-07-29T08:07:34;19.40;99.90
11003;DHT22;5554;55.796;13.090;2022-07-29T08:10:06;19.40;1.00
11003;DHT22;5554;55.796;13.090;2022-07-29T08:12:33;19.50;99.90
11003;DHT22;5554;55.796;13.090;2022-07-29T08:15:00;19.50;1.00
11003;DHT22;5554;55.796;13.090;2022-07-29T08:17:27;19.60;99.90
11003;DHT22;5554;55.796;13.090;2022-07-29T08:19:54;19.70;1.00
11003;DHT22;5554;55.796;13.090;2022-07-29T08:22:21;19.70;99.90
11003;DHT22;5554;55.796;13.090;2022-07-29T08:24:48;19.80;99.40
11003;DHT22;5554;55.796;13.090;2022-07-29T08:27:23;19.70;1.00
11003;DHT22;5554;55.796;13.090;2022-07-29T08:29:51;19.90;1.00
11003;DHT22;5554;55.796;13.090;2022-07-29T08:32:18;20.20;99.90
11003;DHT22;5554;55.796;13.090;2022-07-29T08:34:46;20.30;99.90
11003;DHT22;5554;55.796;13.090;2022-07-29T08:37:13;20.60;99.90
11003;DHT22;5554;55.796;13.090;2022-07-29T08:42:35;20.90;1.00
11003;DHT22;5554;55.796;13.090;2022-07-29T08:45:03;21.20;99.90
11003;DHT22;5554;55.796;13.090;2022-07-29T08:47:39;21.60;99.00
11003;DHT22;5554;55.796;13.090;2022-07-29T08:50:07;22.40;1.00
11003;DHT22;5554;55.796;13.090;2022-07-29T08:52:36;23.40;99.90
11003;DHT22;5554;55.796;13.090;2022-07-29T08:55:05;24.10;1.00
11003;DHT22;5554;55.796;13.090;2022-07-29T08:57:35;24.40;99.90
11003;DHT22;5554;55.796;13.090;2022-07-29T09:00:05;24.30;1.00
11003;DHT22;5554;55.796;13.090;2022-07-29T09:02:36;24.50;99.90
11003;DHT22;5554;55.796;13.090;2022-07-29T09:05:06;25.20;1.00
11003;DHT22;5554;55.796;13.090;2022-07-29T09:07:34;25.70;99.90
11003;DHT22;5554;55.796;13.090;2022-07-29T09:10:03;25.80;99.90
11003;DHT22;5554;55.796;13.090;2022-07-29T09:12:30;25.50;1.00
11003;DHT22;5554;55.796;13.090;2022-07-29T09:14:59;26.00;1.00
11003;DHT22;5554;55.796;13.090;2022-07-29T09:17:42;27.00;1.00
11003;DHT22;5554;55.796;13.090;2022-07-29T09:20:10;27.20;99.90
11003;DHT22;5554;55.796;13.090;2022-07-29T09:22:37;27.30;99.90
11003;DHT22;5554;55.796;13.090;2022-07-29T09:25:05;27.60;99.90
11003;DHT22;5554;55.796;13.090;2022-07-29T09:27:33;27.70;99.90
11003;DHT22;5554;55.796;13.090;2022-07-29T09:30:04;27.50;99.90
11003;DHT22;5554;55.796;13.090;2022-07-29T09:32:32;27.60;99.90
11003;DHT22;5554;55.796;13.090;2022-07-29T09:35:16;27.20;99.90
11003;DHT22;5554;55.796;13.090;2022-07-29T09:37:43;27.40;91.10
11003;DHT22;5554;55.796;13.090;2022-07-29T09:40:16;27.30;84.60
11003;DHT22;5554;55.796;13.090;2022-07-29T09:42:44;27.20;68.90
11003;DHT22;5554;55.796;13.090;2022-07-29T09:45:26;27.20;56.80
11003;DHT22;5554;55.796;13.090;2022-07-29T09:47:53;27.40;42.40
11003;DHT22;5554;55.796;13.090;2022-07-29T09:50:35;27.40;32.10
11003;DHT22;5554;55.796;13.090;2022-07-29T09:53:02;27.20;21.80
11003;DHT22;5554;55.796;13.090;2022-07-29T09:55:29;27.10;16.50
11003;DHT22;5554;55.796;13.090;2022-07-29T09:58:16;26.60;10.30
11003;DHT22;5554;55.796;13.090;2022-07-29T10:00:46;27.10;12.50
11003;DHT22;5554;55.796;13.090;2022-07-29T10:03:13;27.60;8.40
11003;DHT22;5554;55.796;13.090;2022-07-29T10:05:41;27.80;1.00
11003;DHT22;5554;55.796;13.090;2022-07-29T10:08:09;27.70;1.00
11003;DHT22;5554;55.796;13.090;2022-07-29T10:10:39;27.90;1.00
11003;DHT22;5554;55.796;13.090;2022-07-29T10:13:09;27.60;1.00
11003;DHT22;5554;55.796;13.090;2022-07-29T10:15:38;27.40;1.00
11003;DHT22;5554;55.796;13.090;2022-07-29T10:18:08;27.20;1.00
11003;DHT22;5554;55.796;13.090;2022-07-29T10:20:36;26.80;1.00
11003;DHT22;5554;55.796;13.090;2022-07-29T10:23:04;26.90;1.00
11003;DHT22;5554;55.796;13.090;2022-07-29T10:25:31;27.50;1.00
11003;DHT22;5554;55.796;13.090;2022-07-29T10:27:58;27.80;1.00
11003;DHT22;5554;55.796;13.090;2022-07-29T10:30:26;27.80;1.00
11003;DHT22;5554;55.796;13.090;2022-07-29T10:33:15;28.20;1.00
11003;DHT22;5554;55.796;13.090;2022-07-29T10:35:57;28.00;1.00
11003;DHT22;5554;55.796;13.090;2022-07-29T10:38:42;27.70;1.00
11003;DHT22;5554;55.796;13.090;2022-07-29T10:41:30;27.50;1.00
11003;DHT22;5554;55.796;13.090;2022-07-29T10:44:04;28.10;1.00
11003;DHT22;5554;55.796;13.090;2022-07-29T10:46:35;28.30;1.00
11003;DHT22;5554;55.796;13.090;2022-07-29T10:49:12;28.90;1.00
11003;DHT22;5554;55.796;13.090;2022-07-29T10:54:43;28.60;1.00
11003;DHT22;5554;55.796;13.090;2022-07-29T10:57:20;28.60;1.00
11003;DHT22;5554;55.796;13.090;2022-07-29T10:59:48;28.10;1.00
11003;DHT22;5554;55.796;13.090;2022-07-29T11:02:46;28.20;1.00
11003;DHT22;5554;55.796;13.090;2022-07-29T11:05:19;28.80;1.00
11003;DHT22;5554;55.796;13.090;2022-07-29T11:10:53;29.30;1.00
11003;DHT22;5554;55.796;13.090;2022-07-29T11:13:49;29.20;1.00
11003;DHT22;5554;55.796;13.090;2022-07-29T11:16:18;29.80;1.00
11003;DHT22;5554;55.796;13.090;2022-07-29T11:19:18;30.30;1.00
11003;DHT22;5554;55.796;13.090;2022-07-29T11:21:47;30.60;1.00
11003;DHT22;5554;55.796;13.090;2022-07-29T11:24:17;31.00;1.00
11003;DHT22;5554;55.796;13.090;2022-07-29T11:27:10;30.60;1.00
11003;DHT22;5554;55.796;13.090;2022-07-29T11:29:40;30.70;1.00
11003;DHT22;5554;55.796;13.090;2022-07-29T11:35:16;30.80;1.00
11003;DHT22;5554;55.796;13.090;2022-07-29T11:38:25;31.40;1.00
11003;DHT22;5554;55.796;13.090;2022-07-29T11:41:20;31.60;1.00
11003;DHT22;5554;55.796;13.090;2022-07-29T11:43:49;32.20;1.00
11003;DHT22;5554;55.796;13.090;2022-07-29T11:49:00;32.00;1.00
11003;DHT22;5554;55.796;13.090;2022-07-29T11:51:27;31.20;1.00
11003;DHT22;5554;55.796;13.090;2022-07-29T11:53:55;31.80;1.00
11003;DHT22;5554;55.796;13.090;2022-07-29T11:56:26;32.10;1.00
11003;DHT22;5554;55.796;13.090;2022-07-29T11:59:03;32.30;1.00
11003;DHT22;5554;55.796;13.090;2022-07-29T12:01:31;32.00;1.00
11003;DHT22;5554;55.796;13.090;2022-07-29T12:04:03;32.10;1.00
11003;DHT22;5554;55.796;13.090;2022-07-29T12:06:30;32.50;1.00
11003;DHT22;5554;55.796;13.090;2022-07-29T12:08:58;32.70;1.00
11003;DHT22;5554;55.796;13.090;2022-07-29T12:11:26;32.70;1.00
11003;DHT22;5554;55.796;13.090;2022-07-29T12:13:53;32.40;1.00
11003;DHT22;5554;55.796;13.090;2022-07-29T12:16:21;31.90;1.00
11003;DHT22;5554;55.796;13.090;2022-07-29T12:18:55;31.20;1.00
11003;DHT22;5554;55.796;13.090;2022-07-29T12:21:23;31.60;1.00
11003;DHT22;5554;55.796;13.090;2022-07-29T12:23:54;31.30;1.00
11003;DHT22;5554;55.796;13.090;2022-07-29T12:26:22;31.60;1.00
11003;DHT22;5554;55.796;13.090;2022-07-29T12:28:49;31.40;1.00
11003;DHT22;5554;55.796;13.090;2022-07-29T12:31:16;31.20;1.00
11003;DHT22;5554;55.796;13.090;2022-07-29T12:33:52;31.10;1.00
11003;DHT22;5554;55.796;13.090;2022-07-29T12:36:19;30.70;1.00
11003;DHT22;5554;55.796;13.090;2022-07-29T12:38:46;31.30;1.00
11003;DHT22;5554;55.796;13.090;2022-07-29T12:41:16;31.00;1.00
11003;DHT22;5554;55.796;13.090;2022-07-29T12:43:53;30.80;1.00
11003;DHT22;5554;55.796;13.090;2022-07-29T12:46:25;30.80;1.00
11003;DHT22;5554;55.796;13.090;2022-07-29T12:48:54;31.20;1.00
11003;DHT22;5554;55.796;13.090;2022-07-29T12:51:28;31.50;1.00
11003;DHT22;5554;55.796;13.090;2022-07-29T12:54:07;30.80;1.00
11003;DHT22;5554;55.796;13.090;2022-07-29T12:56:36;30.40;1.00
11003;DHT22;5554;55.796;13.090;2022-07-29T12:59:14;30.40;1.00
11003;DHT22;5554;55.796;13.090;2022-07-29T13:01:42;30.20;1.00
11003;DHT22;5554;55.796;13.090;2022-07-29T13:04:09;29.80;1.00
11003;DHT22;5554;55.796;13.090;2022-07-29T13:06:38;30.20;1.00
11003;DHT22;5554;55.796;13.090;2022-07-29T13:09:10;30.00;1.00
11003;DHT22;5554;55.796;13.090;2022-07-29T13:11:39;29.90;1.00
11003;DHT22;5554;55.796;13.090;2022-07-29T13:14:08;29.40;1.00
11003;DHT22;5554;55.796;13.090;2022-07-29T13:19:33;29.60;1.00
11003;DHT22;5554;55.796;13.090;2022-07-29T13:22:09;29.70;1.00
11003;DHT22;5554;55.796;13.090;2022-07-29T13:24:49;29.30;1.00
11003;DHT22;5554;55.796;13.090;2022-07-29T13:27:16;28.60;1.00
11003;DHT22;5554;55.796;13.090;2022-07-29T13:29:43;28.70;1.00
11003;DHT22;5554;55.796;13.090;2022-07-29T13:32:12;27.70;1.00
11003;DHT22;5554;55.796;13.090;2022-07-29T13:34:39;26.70;1.00
11003;DHT22;5554;55.796;13.090;2022-07-29T13:37:07;26.90;1.00
11003;DHT22;5554;55.796;13.090;2022-07-29T13:39:34;27.80;1.00
11003;DHT22;5554;55.796;13.090;2022-07-29T13:42:03;27.80;1.00
11003;DHT22;5554;55.796;13.090;2022-07-29T13:44:30;27.30;1.00
11003;DHT22;5554;55.796;13.090;2022-07-29T13:46:57;27.50;1.00
11003;DHT22;5554;55.796;13.090;2022-07-29T13:49:26;26.80;1.00
11003;DHT22;5554;55.796;13.090;2022-07-29T13:51:54;26.60;1.00
11003;DHT22;5554;55.796;13.090;2022-07-29T13:54:21;26.30;1.00
11003;DHT22;5554;55.796;13.090;2022-07-29T13:56:48;26.00;1.00
11003;DHT22;5554;55.796;13.090;2022-07-29T13:59:14;26.60;1.00
11003;DHT22;5554;55.796;13.090;2022-07-29T14:01:42;27.20;1.00
11003;DHT22;5554;55.796;13.090;2022-07-29T14:04:09;26.60;1.00
11003;DHT22;5554;55.796;13.090;2022-07-29T14:06:38;26.10;1.00
11003;DHT22;5554;55.796;13.090;2022-07-29T14:09:05;25.50;1.00
11003;DHT22;5554;55.796;13.090;2022-07-29T14:11:34;25.20;1.00
11003;DHT22;5554;55.796;13.090;2022-07-29T14:14:01;24.90;1.00
11003;DHT22;5554;55.796;13.090;2022-07-29T14:16:28;25.60;1.00
11003;DHT22;5554;55.796;13.090;2022-07-29T14:18:55;26.10;1.00
11003;DHT22;5554;55.796;13.090;2022-07-29T14:21:22;26.30;1.00
11003;DHT22;5554;55.796;13.090;2022-07-29T14:23:51;26.50;1.00
11003;DHT22;5554;55.796;13.090;2022-07-29T14:26:19;26.60;1.00
11003;DHT22;5554;55.796;13.090;2022-07-29T14:28:46;26.70;1.00
11003;DHT22;5554;55.796;13.090;2022-07-29T14:31:13;26.60;1.00
11003;DHT22;5554;55.796;13.090;2022-07-29T14:33:41;26.80;1.00
11003;DHT22;5554;55.796;13.090;2022-07-29T14:36:08;27.10;1.00
11003;DHT22;5554;55.796;13.090;2022-07-29T14:38:35;27.00;1.00
11003;DHT22;5554;55.796;13.090;2022-07-29T14:41:05;26.80;1.00
11003;DHT22;5554;55.796;13.090;2022-07-29T14:43:33;27.00;1.00
11003;DHT22;5554;55.796;13.090;2022-07-29T14:46:00;27.20;1.00
11003;DHT22;5554;55.796;13.090;2022-07-29T14:48:27;27.30;1.00
11003;DHT22;5554;55.796;13.090;2022-07-29T14:50:57;27.30;1.00
11003;DHT22;5554;55.796;13.090;2022-07-29T14:53:24;27.90;1.00
11003;DHT22;5554;55.796;13.090;2022-07-29T14:55:51;27.70;1.00
11003;DHT22;5554;55.796;13.090;2022-07-29T14:58:20;27.50;1.00
11003;DHT22;5554;55.796;13.090;2022-07-29T15:00:48;27.50;1.00
11003;DHT22;5554;55.796;13.090;2022-07-29T15:03:18;27.20;1.00
11003;DHT22;5554;55.796;13.090;2022-07-29T15:05:45;27.30;1.00
11003;DHT22;5554;55.796;13.090;2022-07-29T15:08:12;26.90;1.00
11003;DHT22;5554;55.796;13.090;2022-07-29T15:10:40;27.00;1.00
11003;DHT22;5554;55.796;13.090;2022-07-29T15:13:07;26.80;1.00
11003;DHT22;5554;55.796;13.090;2022-07-29T15:15:35;26.80;1.00
11003;DHT22;5554;55.796;13.090;2022-07-29T15:18:02;26.80;1.00
11003;DHT22;5554;55.796;13.090;2022-07-29T15:20:29;26.30;1.00
11003;DHT22;5554;55.796;13.090;2022-07-29T15:22:56;26.20;1.00
11003;DHT22;5554;55.796;13.090;2022-07-29T15:25:25;26.00;1.00
11003;DHT22;5554;55.796;13.090;2022-07-29T15:27:52;26.20;1.00
11003;DHT22;5554;55.796;13.090;2022-07-29T15:30:19;26.00;1.00
11003;DHT22;5554;55.796;13.090;2022-07-29T15:32:48;26.00;1.00
11003;DHT22;5554;55.796;13.090;2022-07-29T15:35:15;25.90;1.00
11003;DHT22;5554;55.796;13.090;2022-07-29T15:37:42;25.60;1.00
11003;DHT22;5554;55.796;13.090;2022-07-29T15:40:10;25.60;1.00
11003;DHT22;5554;55.796;13.090;2022-07-29T15:42:37;25.50;1.00
11003;DHT22;5554;55.796;13.090;2022-07-29T15:45:05;25.60;1.00
11003;DHT22;5554;55.796;13.090;2022-07-29T15:47:35;25.50;1.00
11003;DHT22;5554;55.796;13.090;2022-07-29T15:50:04;25.70;1.00
11003;DHT22;5554;55.796;13.090;2022-07-29T15:52:31;25.60;1.00
11003;DHT22;5554;55.796;13.090;2022-07-29T15:55:00;25.50;1.00
11003;DHT22;5554;55.796;13.090;2022-07-29T15:57:33;25.50;1.00
11003;DHT22;5554;55.796;13.090;2022-07-29T16:00:00;25.30;1.00
11003;DHT22;5554;55.796;13.090;2022-07-29T16:02:27;25.50;1.00
11003;DHT22;5554;55.796;13.090;2022-07-29T16:04:53;25.60;1.00
11003;DHT22;5554;55.796;13.090;2022-07-29T16:07:22;25.70;1.00
11003;DHT22;5554;55.796;13.090;2022-07-29T16:09:49;25.50;1.00
11003;DHT22;5554;55.796;13.090;2022-07-29T16:12:16;25.70;1.00